createdAt,value
2022-11-20T00:00:54.249Z,4.80
2022-11-20T00:03:20.915Z,5.07
2022-11-20T00:05:47.444Z,4.27
2022-11-20T00:08:14.723Z,4.65
2022-11-20T00:10:41.932Z,4.07
2022-11-20T00:13:08.873Z,3.85
2022-11-20T00:15:35.482Z,4.93
2022-11-20T00:18:01.979Z,4.07
2022-11-20T00:20:28.669Z,4.30
2022-11-20T00:22:55.196Z,5.10
2022-11-20T00:25:21.826Z,2.92
2022-11-20T00:27:48.443Z,5.10
2022-11-20T00:30:15.856Z,4.83
2022-11-20T00:32:42.477Z,3.72
2022-11-20T00:35:09.055Z,4.35
2022-11-20T00:37:35.607Z,4.20
2022-11-20T00:40:02.197Z,4.40
2022-11-20T00:42:28.669Z,4.80
2022-11-20T00:44:55.241Z,3.90
2022-11-20T00:47:21.790Z,5.03
2022-11-20T00:49:48.371Z,4.32
2022-11-20T00:52:14.988Z,5.28
2022-11-20T00:54:41.506Z,4.50
2022-11-20T00:57:07.965Z,3.55
2022-11-20T00:59:34.543Z,4.85
2022-11-20T01:02:01.044Z,4.47
2022-11-20T01:04:27.603Z,4.90
2022-11-20T01:06:54.270Z,4.63
2022-11-20T01:09:21.872Z,5.32
2022-11-20T01:11:48.584Z,5.13
2022-11-20T01:14:18.111Z,4.30
2022-11-20T01:16:48.731Z,5.22
2022-11-20T01:19:18.844Z,5.13
2022-11-20T01:21:47.215Z,3.85
2022-11-20T01:24:15.556Z,4.93
2022-11-20T01:26:43.961Z,6.00
2022-11-20T01:29:24.859Z,5.47
2022-11-20T01:31:52.152Z,5.50
2022-11-20T01:34:20.633Z,4.57
2022-11-20T01:36:48.013Z,5.15
2022-11-20T01:39:18.232Z,4.90
2022-11-20T01:41:46.256Z,3.90
2022-11-20T01:44:16.119Z,5.20
2022-11-20T01:47:00.322Z,4.50
2022-11-20T01:49:55.714Z,5.05
2022-11-20T01:52:31.790Z,4.85
2022-11-20T01:55:13.913Z,6.97
2022-11-20T01:57:41.543Z,6.53
2022-11-20T02:00:11.190Z,6.20
2022-11-20T02:02:40.074Z,6.25
2022-11-20T02:05:37.826Z,5.55
2022-11-20T02:08:06.685Z,6.18
2022-11-20T02:10:34.240Z,6.47
2022-11-20T02:13:00.917Z,5.25
2022-11-20T02:15:30.288Z,5.97
2022-11-20T02:17:57.358Z,5.57
2022-11-20T02:20:24.151Z,5.03
2022-11-20T02:23:20.953Z,5.33
2022-11-20T02:25:48.674Z,4.10
2022-11-20T02:28:15.956Z,5.45
2022-11-20T02:30:42.547Z,5.72
2022-11-20T02:33:09.273Z,6.10
2022-11-20T02:35:35.672Z,5.57
2022-11-20T02:38:03.715Z,5.45
2022-11-20T02:40:30.514Z,5.43
2022-11-20T02:42:58.146Z,5.90
2022-11-20T02:45:25.462Z,6.53
2022-11-20T02:47:52.812Z,5.87
2022-11-20T02:50:19.701Z,4.68
2022-11-20T02:52:46.245Z,6.75
2022-11-20T02:55:12.979Z,5.78
2022-11-20T02:57:39.479Z,5.30
2022-11-20T03:00:06.904Z,5.10
2022-11-20T03:02:34.134Z,6.25
2022-11-20T03:05:00.672Z,5.93
2022-11-20T03:07:27.203Z,5.95
2022-11-20T03:09:53.903Z,5.93
2022-11-20T03:12:20.436Z,5.77
2022-11-20T03:14:52.590Z,6.88
2022-11-20T03:17:19.874Z,7.22
2022-11-20T03:19:46.336Z,7.18
2022-11-20T03:22:12.778Z,7.05
2022-11-20T03:24:39.314Z,6.27
2022-11-20T03:27:05.807Z,6.32
2022-11-20T03:29:32.287Z,6.45
2022-11-20T03:31:59.020Z,5.68
2022-11-20T03:34:25.568Z,5.60
2022-11-20T03:36:52.084Z,6.63
2022-11-20T03:39:18.854Z,6.05
2022-11-20T03:41:45.431Z,6.63
2022-11-20T03:44:12.729Z,6.68
2022-11-20T03:46:39.546Z,7.90
2022-11-20T03:49:06.085Z,6.53
2022-11-20T03:51:35.151Z,6.28
2022-11-20T03:54:04.741Z,7.30
2022-11-20T03:56:34.173Z,4.00
2022-11-20T03:59:01.425Z,7.85
2022-11-20T04:01:37.625Z,8.10
2022-11-20T04:04:04.993Z,8.05
2022-11-20T04:06:36.135Z,7.47
2022-11-20T04:09:03.422Z,7.30
2022-11-20T04:11:32.785Z,6.82
2022-11-20T04:14:01.976Z,8.13
2022-11-20T04:16:32.377Z,6.78
2022-11-20T04:19:00.711Z,6.10
2022-11-20T04:21:28.040Z,5.20
2022-11-20T04:23:55.661Z,7.70
2022-11-20T04:26:24.093Z,6.57
2022-11-20T04:28:50.914Z,7.20
2022-11-20T04:31:20.494Z,7.97
2022-11-20T04:33:47.515Z,7.07
2022-11-20T04:36:19.662Z,9.10
2022-11-20T04:38:47.015Z,9.53
2022-11-20T04:41:18.729Z,5.97
2022-11-20T04:43:50.591Z,8.10
2022-11-20T04:46:18.190Z,8.60
2022-11-20T04:48:44.658Z,8.40
2022-11-20T04:51:11.540Z,7.90
2022-11-20T04:53:38.098Z,7.28
2022-11-20T04:56:07.545Z,5.32
2022-11-20T04:58:34.646Z,7.47
2022-11-20T05:01:11.291Z,8.65
2022-11-20T05:03:42.117Z,7.90
2022-11-20T05:06:11.174Z,8.68
2022-11-20T05:08:37.775Z,7.03
2022-11-20T05:11:06.617Z,8.55
2022-11-20T05:13:33.303Z,6.22
2022-11-20T05:16:17.369Z,8.13
2022-11-20T05:18:44.372Z,8.10
2022-11-20T05:21:11.714Z,7.75
2022-11-20T05:23:38.576Z,7.32
2022-11-20T05:26:06.038Z,6.85
2022-11-20T05:28:33.676Z,7.03
2022-11-20T05:31:07.146Z,8.07
2022-11-20T05:33:35.247Z,7.82
2022-11-20T05:36:03.354Z,8.38
2022-11-20T05:38:30.026Z,8.35
2022-11-20T05:41:03.353Z,6.23
2022-11-20T05:43:33.168Z,9.80
2022-11-20T05:45:59.678Z,8.50
2022-11-20T05:48:26.433Z,10.32
2022-11-20T05:50:53.012Z,8.73
2022-11-20T05:53:19.543Z,9.47
2022-11-20T05:55:46.069Z,6.55
2022-11-20T05:58:12.621Z,6.60
2022-11-20T06:00:39.181Z,7.68
2022-11-20T06:03:05.843Z,8.00
2022-11-20T06:05:34.802Z,7.53
2022-11-20T06:08:01.692Z,7.75
2022-11-20T06:10:28.488Z,6.70
2022-11-20T06:12:58.617Z,7.65
2022-11-20T06:15:25.389Z,7.35
2022-11-20T06:17:59.177Z,7.00
2022-11-20T06:20:25.743Z,6.45
2022-11-20T06:22:52.278Z,8.15
2022-11-20T06:25:18.910Z,6.75
2022-11-20T06:27:45.484Z,7.55
2022-11-20T06:30:12.923Z,6.00
2022-11-20T06:32:39.430Z,3.72
2022-11-20T06:35:06.335Z,7.63
2022-11-20T06:37:32.905Z,6.57
2022-11-20T06:39:59.381Z,8.13
2022-11-20T06:42:26.042Z,9.30
2022-11-20T06:44:52.606Z,8.05
2022-11-20T06:47:19.218Z,6.15
2022-11-20T06:49:45.759Z,6.32
2022-11-20T06:52:12.274Z,8.85
2022-11-20T06:54:38.825Z,7.77
2022-11-20T06:57:05.399Z,8.60
2022-11-20T06:59:31.922Z,8.90
2022-11-20T07:01:58.535Z,3.58
2022-11-20T07:04:25.126Z,7.25
2022-11-20T07:06:51.608Z,7.70
2022-11-20T07:09:18.349Z,7.30
2022-11-20T07:11:45.789Z,8.55
2022-11-20T07:14:12.515Z,7.65
2022-11-20T07:16:39.069Z,8.43
2022-11-20T07:19:05.735Z,8.93
2022-11-20T07:21:32.271Z,8.25
2022-11-20T07:23:58.759Z,6.50
2022-11-20T07:26:25.320Z,9.07
2022-11-20T07:28:51.830Z,8.02
2022-11-20T07:31:19.601Z,7.77
2022-11-20T07:33:46.801Z,6.43
2022-11-20T07:36:13.352Z,6.93
2022-11-20T07:38:39.842Z,7.68
2022-11-20T07:41:06.461Z,8.95
2022-11-20T07:43:35.875Z,8.10
2022-11-20T07:46:06.378Z,7.95
2022-11-20T07:48:32.942Z,7.28
2022-11-20T07:50:59.442Z,7.25
2022-11-20T07:53:26.030Z,9.18
2022-11-20T07:55:52.608Z,7.03
2022-11-20T07:58:20.375Z,8.60
2022-11-20T08:00:47.387Z,8.13
2022-11-20T08:03:13.976Z,6.82
2022-11-20T08:05:40.528Z,7.35
2022-11-20T08:08:07.044Z,7.80
2022-11-20T08:10:35.840Z,7.30
2022-11-20T08:13:02.342Z,7.00
2022-11-20T08:15:28.910Z,9.40
2022-11-20T08:18:29.407Z,9.32
2022-11-20T08:20:51.503Z,7.87
2022-11-20T08:23:18.107Z,7.78
2022-11-20T08:25:44.618Z,6.22
2022-11-20T08:28:20.180Z,8.75
2022-11-20T08:30:48.396Z,8.75
2022-11-20T08:33:15.008Z,7.63
2022-11-20T08:35:41.538Z,7.18
2022-11-20T08:38:08.524Z,6.78
2022-11-20T08:40:35.064Z,7.60
2022-11-20T08:43:01.897Z,7.40
2022-11-20T08:45:33.652Z,5.93
2022-11-20T08:48:02.602Z,6.85
2022-11-20T08:50:29.506Z,7.88
2022-11-20T08:52:56.062Z,7.43
2022-11-20T08:55:22.573Z,7.80
2022-11-20T08:57:51.008Z,8.93
2022-11-20T09:00:18.160Z,9.98
2022-11-20T09:02:44.725Z,7.78
2022-11-20T09:05:11.263Z,7.80
2022-11-20T09:07:37.896Z,9.30
2022-11-20T09:10:23.035Z,8.37
2022-11-20T09:12:51.292Z,9.57
2022-11-20T09:15:17.859Z,7.20
2022-11-20T09:17:54.812Z,7.15
2022-11-20T09:20:22.020Z,7.32
2022-11-20T09:22:48.951Z,4.40
2022-11-20T09:25:15.642Z,5.78
2022-11-20T09:27:42.148Z,2.25
2022-11-20T09:30:11.445Z,6.68
2022-11-20T09:32:39.971Z,7.60
2022-11-20T09:35:06.907Z,7.17
2022-11-20T09:37:33.350Z,7.47
2022-11-20T09:40:00.192Z,8.02
2022-11-20T09:42:45.986Z,7.18
2022-11-20T09:45:18.565Z,6.70
2022-11-20T09:47:57.647Z,7.73
2022-11-20T09:50:28.898Z,6.75
2022-11-20T09:53:14.153Z,6.00
2022-11-20T09:55:40.845Z,6.40
2022-11-20T09:58:15.154Z,6.55
2022-11-20T10:00:42.466Z,7.53
2022-11-20T10:03:40.739Z,5.68
2022-11-20T10:06:14.100Z,7.25
2022-11-20T10:08:49.520Z,8.20
2022-11-20T10:11:24.654Z,5.90
2022-11-20T10:14:33.277Z,7.33
2022-11-20T10:17:24.374Z,5.40
2022-11-20T10:20:22.935Z,7.05
2022-11-20T10:23:04.480Z,7.50
2022-11-20T10:26:00.094Z,8.07
2022-11-20T10:28:59.394Z,8.43
2022-11-20T10:31:37.006Z,6.60
2022-11-20T10:34:36.781Z,7.57
2022-11-20T10:37:27.810Z,8.43
2022-11-20T10:40:13.923Z,8.43
2022-11-20T10:42:46.270Z,7.77
2022-11-20T10:45:25.242Z,8.75
2022-11-20T10:48:11.049Z,7.05
2022-11-20T10:50:41.642Z,9.10
2022-11-20T10:53:26.350Z,10.10
2022-11-20T10:56:01.327Z,5.97
2022-11-20T10:58:52.415Z,5.45
2022-11-20T11:01:22.812Z,7.30
2022-11-20T11:03:50.417Z,8.65
2022-11-20T11:06:37.992Z,7.65
2022-11-20T11:09:39.915Z,8.37
2022-11-20T11:12:10.929Z,7.55
2022-11-20T11:14:51.940Z,7.65
2022-11-20T11:17:25.925Z,8.20
2022-11-20T11:20:26.166Z,7.65
2022-11-20T11:22:55.687Z,7.40
2022-11-20T11:25:31.215Z,6.07
2022-11-20T11:28:00.655Z,6.47
2022-11-20T11:30:29.195Z,7.50
2022-11-20T11:33:07.222Z,8.43
2022-11-20T11:35:34.189Z,7.03
2022-11-20T11:38:13.598Z,8.07
2022-11-20T11:40:41.578Z,7.63
2022-11-20T11:43:20.483Z,4.88
2022-11-20T11:45:54.664Z,8.40
2022-11-20T11:48:21.688Z,8.87
2022-11-20T11:50:51.869Z,9.88
2022-11-20T11:53:24.747Z,8.85
2022-11-20T11:55:55.708Z,8.93
2022-11-20T11:58:34.417Z,11.00
2022-11-20T12:01:37.991Z,10.07
2022-11-20T12:04:25.737Z,7.38
2022-11-20T12:07:38.960Z,8.63
2022-11-20T12:09:59.602Z,8.75
2022-11-20T12:12:31.025Z,8.35
2022-11-20T12:14:59.354Z,9.00
2022-11-20T12:17:25.812Z,8.30
2022-11-20T12:19:52.481Z,8.98
2022-11-20T12:22:42.410Z,8.25
2022-11-20T12:25:12.689Z,9.27
2022-11-20T12:28:17.376Z,8.40
2022-11-20T12:31:10.898Z,10.25
2022-11-20T12:33:53.574Z,10.30
2022-11-20T12:36:22.718Z,8.63
2022-11-20T12:39:04.670Z,9.43
2022-11-20T12:42:03.370Z,9.60
2022-11-20T12:44:47.893Z,8.13
2022-11-20T12:47:34.206Z,10.88
2022-11-20T12:50:06.784Z,9.57
2022-11-20T12:52:52.870Z,9.48
2022-11-20T12:55:44.096Z,9.57
2022-11-20T12:58:32.468Z,10.48
2022-11-20T13:01:25.544Z,9.35
2022-11-20T13:03:58.209Z,10.07
2022-11-20T13:06:26.783Z,8.15
2022-11-20T13:08:56.180Z,9.43
2022-11-20T13:11:41.323Z,10.00
2022-11-20T13:14:35.006Z,9.93
2022-11-20T13:17:42.492Z,10.63
2022-11-20T13:20:15.826Z,7.95
2022-11-20T13:22:50.860Z,12.03
2022-11-20T13:25:31.658Z,2.88
2022-11-20T13:28:05.993Z,9.85
2022-11-20T13:30:33.224Z,10.27
2022-11-20T13:33:10.598Z,10.07
2022-11-20T13:35:41.997Z,8.93
2022-11-20T13:38:14.138Z,7.45
2022-11-20T13:41:01.889Z,6.20
2022-11-20T13:43:45.692Z,9.50
2022-11-20T13:46:15.259Z,10.35
2022-11-20T13:48:46.725Z,10.47
2022-11-20T13:51:13.204Z,4.05
2022-11-20T13:54:17.008Z,11.70
2022-11-20T13:57:03.707Z,6.65
2022-11-20T13:59:52.155Z,8.88
2022-11-20T14:02:20.669Z,9.70
2022-11-20T14:04:51.012Z,8.55
2022-11-20T14:07:20.294Z,11.18
2022-11-20T14:09:58.282Z,10.43
2022-11-20T14:12:31.147Z,10.20
2022-11-20T14:14:58.631Z,8.80
2022-11-20T14:17:34.443Z,10.60
2022-11-20T14:20:05.150Z,3.97
2022-11-20T14:22:31.745Z,6.60
2022-11-20T14:25:19.346Z,9.75
2022-11-20T14:27:51.758Z,10.07
2022-11-20T14:30:22.289Z,10.27
2022-11-20T14:32:50.167Z,7.97
2022-11-20T14:35:47.230Z,9.75
2022-11-20T14:38:17.840Z,9.43
2022-11-20T14:40:44.757Z,7.63
2022-11-20T14:43:24.754Z,10.07
2022-11-20T14:46:09.326Z,10.30
2022-11-20T14:48:47.328Z,11.63
2022-11-20T14:51:39.210Z,11.43
2022-11-20T14:54:13.562Z,11.63
2022-11-20T14:56:40.079Z,10.93
2022-11-20T14:59:08.289Z,10.05
2022-11-20T15:01:35.434Z,7.30
2022-11-20T15:04:10.515Z,11.07
2022-11-20T15:06:38.793Z,10.17
2022-11-20T15:09:13.762Z,10.10
2022-11-20T15:11:43.987Z,10.18
2022-11-20T15:14:10.625Z,10.52
2022-11-20T15:16:37.294Z,8.88
2022-11-20T15:19:17.520Z,9.27
2022-11-20T15:21:43.976Z,11.45
2022-11-20T15:24:10.958Z,10.23
2022-11-20T15:26:40.391Z,9.70
2022-11-20T15:29:11.294Z,6.78
2022-11-20T15:31:37.883Z,8.23
2022-11-20T15:34:07.396Z,9.65
2022-11-20T15:36:34.086Z,9.07
2022-11-20T15:39:00.681Z,10.88
2022-11-20T15:41:27.362Z,11.38
2022-11-20T15:43:53.884Z,12.00
2022-11-20T15:46:28.002Z,13.15
2022-11-20T15:48:58.246Z,12.23
2022-11-20T15:51:31.713Z,12.63
2022-11-20T15:53:58.745Z,11.07
2022-11-20T15:56:31.413Z,10.07
2022-11-20T15:58:58.168Z,11.98
2022-11-20T16:01:24.657Z,12.02
2022-11-20T16:03:51.482Z,11.68
2022-11-20T16:06:18.207Z,10.15
2022-11-20T16:08:44.860Z,10.40
2022-11-20T16:11:17.245Z,11.88
2022-11-20T16:13:43.927Z,13.48
2022-11-20T16:16:33.259Z,10.88
2022-11-20T16:18:59.938Z,11.70
2022-11-20T16:21:26.989Z,12.40
2022-11-20T16:23:53.705Z,9.70
2022-11-20T16:26:20.325Z,11.32
2022-11-20T16:28:46.998Z,17.65
2022-11-20T16:31:16.063Z,12.48
2022-11-20T16:33:42.657Z,11.73
2022-11-20T16:36:14.718Z,13.13
2022-11-20T16:38:41.825Z,11.43
2022-11-20T16:41:11.325Z,11.45
2022-11-20T16:43:37.814Z,12.77
2022-11-20T16:46:05.222Z,7.93
2022-11-20T16:48:31.770Z,15.30
2022-11-20T16:50:58.434Z,11.68
2022-11-20T16:53:25.247Z,15.27
2022-11-20T16:55:51.775Z,13.52
2022-11-20T16:58:18.328Z,14.93
2022-11-20T17:00:50.237Z,14.35
2022-11-20T17:03:18.706Z,7.00
2022-11-20T17:05:45.419Z,10.73
2022-11-20T17:08:12.008Z,13.32
2022-11-20T17:10:38.760Z,12.27
2022-11-20T17:13:05.587Z,11.82
2022-11-20T17:15:32.172Z,13.30
2022-11-20T17:17:58.721Z,14.07
2022-11-20T17:20:25.413Z,15.10
2022-11-20T17:22:51.918Z,12.30
2022-11-20T17:25:18.416Z,13.68
2022-11-20T17:27:45.339Z,12.02
2022-11-20T17:30:12.013Z,10.25
2022-11-20T17:32:41.113Z,12.57
2022-11-20T17:35:08.238Z,11.50
2022-11-20T17:37:34.772Z,12.15
2022-11-20T17:40:01.329Z,5.93
2022-11-20T17:42:28.618Z,11.05
2022-11-20T17:44:56.516Z,13.23
2022-11-20T17:47:23.008Z,9.40
2022-11-20T17:49:49.594Z,8.10
2022-11-20T17:52:16.182Z,8.82
2022-11-20T17:54:42.765Z,10.68
2022-11-20T17:57:09.952Z,9.75
2022-11-20T17:59:38.405Z,9.90
2022-11-20T18:02:05.144Z,12.02
2022-11-20T18:04:32.005Z,8.07
2022-11-20T18:06:58.682Z,8.98
2022-11-20T18:09:25.595Z,9.93
2022-11-20T18:11:52.999Z,9.80
2022-11-20T18:14:19.562Z,9.45
2022-11-20T18:16:51.951Z,10.80
2022-11-20T18:19:44.908Z,9.50
2022-11-20T18:22:19.645Z,9.10
2022-11-20T18:24:46.261Z,8.33
2022-11-20T18:27:17.635Z,8.63
2022-11-20T18:29:45.881Z,5.78
2022-11-20T18:32:12.791Z,5.18
2022-11-20T18:34:39.349Z,8.25
2022-11-20T18:37:06.097Z,4.60
2022-11-20T18:39:32.905Z,9.70
2022-11-20T18:41:59.599Z,8.48
2022-11-20T18:44:28.717Z,9.30
2022-11-20T18:46:55.521Z,11.07
2022-11-20T18:49:22.063Z,10.20
2022-11-20T18:51:51.027Z,8.48
2022-11-20T18:54:17.717Z,9.48
2022-11-20T18:56:44.290Z,9.52
2022-11-20T18:59:12.494Z,8.65
2022-11-20T19:01:39.481Z,6.60
2022-11-20T19:04:08.020Z,9.73
2022-11-20T19:06:35.563Z,10.10
2022-11-20T19:09:04.196Z,9.90
2022-11-20T19:11:31.371Z,7.90
2022-11-20T19:13:57.992Z,8.93
2022-11-20T19:16:24.550Z,9.43
2022-11-20T19:18:51.081Z,9.20
2022-11-20T19:21:23.490Z,9.20
2022-11-20T19:23:51.410Z,8.70
2022-11-20T19:26:19.187Z,10.07
2022-11-20T19:28:46.522Z,9.98
2022-11-20T19:31:21.540Z,9.13
2022-11-20T19:34:02.136Z,9.40
2022-11-20T19:36:44.335Z,9.90
2022-11-20T19:39:12.560Z,8.00
2022-11-20T19:41:41.016Z,7.97
2022-11-20T19:44:11.532Z,7.97
2022-11-20T19:46:39.227Z,7.70
2022-11-20T19:49:07.976Z,11.18
2022-11-20T19:51:35.044Z,12.63
2022-11-20T19:54:02.315Z,10.82
2022-11-20T19:56:30.934Z,11.52
2022-11-20T19:58:57.948Z,9.73
2022-11-20T20:01:27.187Z,8.05
2022-11-20T20:03:54.655Z,8.80
2022-11-20T20:06:26.167Z,4.15
2022-11-20T20:08:57.244Z,5.38
2022-11-20T20:11:25.947Z,9.85
2022-11-20T20:13:52.949Z,10.77
2022-11-20T20:16:22.811Z,10.40
2022-11-20T20:18:49.651Z,9.20
2022-11-20T20:21:17.409Z,8.13
2022-11-20T20:23:44.579Z,11.00
2022-11-20T20:26:11.882Z,5.50
2022-11-20T20:28:38.892Z,5.27
2022-11-20T20:31:07.639Z,7.57
2022-11-20T20:33:36.473Z,9.75
2022-11-20T20:36:04.362Z,9.38
2022-11-20T20:38:30.944Z,7.32
2022-11-20T20:40:57.490Z,10.63
2022-11-20T20:43:24.021Z,11.20
2022-11-20T20:45:51.669Z,8.65
2022-11-20T20:48:20.713Z,9.65
2022-11-20T20:50:55.119Z,10.13
2022-11-20T20:53:22.034Z,9.37
2022-11-20T20:55:59.758Z,9.98
2022-11-20T20:58:28.047Z,7.63
2022-11-20T21:00:54.790Z,11.32
2022-11-20T21:03:21.476Z,10.52
2022-11-20T21:05:55.925Z,9.10
2022-11-20T21:08:22.603Z,11.85
2022-11-20T21:10:49.763Z,9.75
2022-11-20T21:13:17.019Z,9.55
2022-11-20T21:15:46.948Z,9.18
2022-11-20T21:18:13.736Z,11.07
2022-11-20T21:20:40.331Z,8.57
2022-11-20T21:23:09.367Z,7.97
2022-11-20T21:25:37.877Z,7.70
2022-11-20T21:28:04.536Z,7.70
2022-11-20T21:30:31.220Z,8.47
2022-11-20T21:32:57.830Z,7.63
2022-11-20T21:35:24.403Z,6.65
2022-11-20T21:37:50.946Z,10.55
2022-11-20T21:40:17.589Z,5.10
2022-11-20T21:42:45.094Z,6.33
2022-11-20T21:45:11.655Z,7.38
2022-11-20T21:47:38.145Z,9.35
2022-11-20T21:50:05.798Z,9.75
2022-11-20T21:52:32.327Z,8.88
2022-11-20T21:54:58.842Z,10.20
2022-11-20T21:57:25.441Z,9.38
2022-11-20T21:59:51.941Z,8.63
2022-11-20T22:02:18.538Z,11.00
2022-11-20T22:04:45.110Z,11.07
2022-11-20T22:07:11.672Z,11.73
2022-11-20T22:09:38.439Z,10.57
2022-11-20T22:12:05.626Z,11.65
2022-11-20T22:14:32.131Z,11.63
2022-11-20T22:16:58.563Z,12.50
2022-11-20T22:19:25.123Z,10.93
2022-11-20T22:21:51.717Z,11.63
2022-11-20T22:24:21.109Z,10.30
2022-11-20T22:26:48.838Z,6.55
2022-11-20T22:29:17.464Z,7.50
2022-11-20T22:31:44.452Z,9.23
2022-11-20T22:34:13.135Z,10.93
2022-11-20T22:36:40.621Z,9.55
2022-11-20T22:39:07.722Z,9.20
2022-11-20T22:41:34.456Z,9.52
2022-11-20T22:44:03.785Z,10.33
2022-11-20T22:46:33.598Z,6.85
2022-11-20T22:49:02.156Z,6.03
2022-11-20T22:51:31.033Z,7.75
2022-11-20T22:53:57.574Z,7.75
2022-11-20T22:56:25.446Z,5.40
2022-11-20T22:58:53.264Z,7.22
2022-11-20T23:01:25.036Z,7.45
2022-11-20T23:03:55.444Z,6.47
2022-11-20T23:06:22.917Z,6.45
2022-11-20T23:08:50.337Z,8.37
2022-11-20T23:11:25.208Z,3.63
2022-11-20T23:13:57.680Z,8.07
2022-11-20T23:16:28.300Z,7.45
2022-11-20T23:18:56.603Z,9.73
2022-11-20T23:21:23.785Z,9.47
2022-11-20T23:23:52.581Z,9.82
2022-11-20T23:26:20.585Z,11.07
2022-11-20T23:28:47.208Z,11.27
2022-11-20T23:31:15.310Z,10.88
2022-11-20T23:33:43.997Z,11.73
2022-11-20T23:36:10.964Z,11.50
2022-11-20T23:38:37.606Z,9.30
2022-11-20T23:41:04.346Z,11.05
2022-11-20T23:43:31.562Z,10.60
2022-11-20T23:46:01.266Z,10.63
2022-11-20T23:48:30.610Z,10.07
2022-11-20T23:50:57.391Z,10.30
2022-11-20T23:53:24.601Z,11.13
2022-11-20T23:55:55.738Z,8.75
2022-11-20T23:58:25.947Z,11.00
